Time,TemperatureF,DewpointF,PressureIn,WindDirection,WindDirectionDegrees,WindSpeedMPH,WindSpeedGustMPH,Humidity,HourlyPrecipIn,Conditions,Clouds,dailyrainin,SoftwareType,DateUTC
2013-05-21 00:00:00,70.5,66.1,29.60,ESE,112,0.0,0.0,86,0.00,CLR,CLR,0.00,WeatherDisplay:10.37,2013-05-21 04:00:00,
2013-05-21 00:30:00,70.5,66.1,29.60,ESE,112,0.0,0.0,86,0.00,CLR,CLR,0.00,WeatherDisplay:10.37,2013-05-21 04:30:00,
2013-05-21 01:00:00,70.0,65.6,29.59,East,90,0.0,0.0,86,0.00,CLR,CLR,0.00,WeatherDisplay:10.37,2013-05-21 05:00:00,
2013-05-21 01:30:00,69.8,65.8,29.58,NE,45,0.0,0.0,87,0.00,CLR,CLR,0.00,WeatherDisplay:10.37,2013-05-21 05:30:00,
2013-05-21 02:00:00,68.9,65.5,29.56,SSE,153,0.0,0.0,89,0.00,CLR,CLR,0.00,WeatherDisplay:10.37,2013-05-21 06:00:00,
2013-05-21 02:30:00,69.1,65.4,29.56,SE,135,0.0,0.0,88,0.00,CLR,CLR,0.00,WeatherDisplay:10.37,2013-05-21 06:30:00,
2013-05-21 03:00:00,68.9,65.2,29.56,East,85,0.0,0.0,88,0.00,CLR,CLR,0.00,WeatherDisplay:10.37,2013-05-21 07:00:00,
2013-05-21 03:30:00,68.7,65.3,29.56,NE,45,0.0,0.0,89,0.00,CLR,CLR,0.00,WeatherDisplay:10.37,2013-05-21 07:30:00,
2013-05-21 04:00:00,68.7,65.3,29.56,East,79,0.0,0.0,89,0.00,CLR,CLR,0.00,WeatherDisplay:10.37,2013-05-21 08:00:00,
2013-05-21 04:30:00,68.5,65.2,29.56,ENE,68,0.0,0.0,89,0.00,CLR,CLR,0.00,WeatherDisplay:10.37,2013-05-21 08:30:00,
2013-05-21 05:00:00,68.4,65.3,29.55,ENE,70,0.0,0.0,90,0.00,CLR,CLR,0.00,WeatherDisplay:10.37,2013-05-21 09:00:00,
2013-05-21 05:30:00,68.4,65.3,29.55,ESE,104,0.0,0.0,90,0.00,CLR,CLR,0.00,WeatherDisplay:10.37,2013-05-21 09:30:00,
2013-05-21 06:00:00,68.2,65.5,29.56,ESE,108,0.0,0.0,91,0.00,CLR,CLR,0.00,WeatherDisplay:10.37,2013-05-21 10:00:00,
2013-05-21 06:30:00,68.2,65.5,29.56,ESE,104,0.0,0.0,91,0.00,CLR,CLR,0.00,WeatherDisplay:10.37,2013-05-21 10:30:00,
2013-05-21 07:00:00,68.2,65.5,29.57,ESE,108,0.0,0.0,91,0.00,CLR,CLR,0.00,WeatherDisplay:10.37,2013-05-21 11:00:00,
2013-05-21 07:30:00,69.1,66.3,29.57,SE,140,0.0,0.0,91,0.00,CLR,CLR,0.00,WeatherDisplay:10.37,2013-05-21 11:30:00,
2013-05-21 08:00:00,70.9,67.8,29.58,ESE,108,0.0,0.0,90,0.00,CLR,CLR,0.00,WeatherDisplay:10.37,2013-05-21 12:00:00,
2013-05-21 08:30:00,72.7,68.9,29.59,SE,129,0.0,0.0,88,0.00,CLR,CLR,0.00,WeatherDisplay:10.37,2013-05-21 12:30:00,
2013-05-21 09:00:00,74.8,70.0,29.60,ESE,117,0.0,2.0,85,0.00,,,0.00,WeatherDisplay:10.37,2013-05-21 13:00:00,
2013-05-21 09:30:00,76.6,70.0,29.60,ESE,112,0.0,6.0,80,0.00,CLR,CLR,0.00,WeatherDisplay:10.37,2013-05-21 13:30:00,
2013-05-21 10:00:00,78.6,70.4,29.61,SE,137,1.0,6.0,76,0.00,CLR,CLR,0.00,WeatherDisplay:10.37,2013-05-21 14:00:00,
2013-05-21 10:30:00,81.1,71.3,29.60,ESE,123,0.0,5.0,72,0.00,CLR,CLR,0.00,WeatherDisplay:10.37,2013-05-21 14:30:00,
2013-05-21 11:00:00,84.4,72.7,29.61,East,98,2.0,3.0,68,0.00,CLR,CLR,0.00,WeatherDisplay:10.37,2013-05-21 15:00:00,
2013-05-21 11:30:00,87.1,72.0,29.61,NE,38,0.0,2.0,61,0.00,CLR,CLR,0.00,WeatherDisplay:10.37,2013-05-21 15:30:00,
2013-05-21 12:00:00,83.5,70.5,29.60,SE,140,0.0,2.0,65,0.00,CLR,CLR,0.00,WeatherDisplay:10.37,2013-05-21 16:00:00,
2013-05-21 12:30:00,81.5,70.8,29.60,NNW,328,2.0,9.0,70,0.00,CLR,CLR,0.00,WeatherDisplay:10.37,2013-05-21 16:30:00,
2013-05-21 13:00:00,71.8,66.7,29.59,SSE,168,3.0,9.0,84,0.00,CLR,CLR,0.00,WeatherDisplay:10.37,2013-05-21 17:00:00,
2013-05-21 13:30:00,74.3,70.5,29.57,SSE,158,0.0,0.0,88,0.00,,,0.00,WeatherDisplay:10.37,2013-05-21 17:30:00,
2013-05-21 14:00:00,79.5,72.1,29.56,SSE,158,0.0,0.0,78,0.00,CLR,CLR,0.00,WeatherDisplay:10.37,2013-05-21 18:00:00,
2013-05-21 14:30:00,82.2,71.9,29.54,WSW,254,0.0,0.0,71,0.00,CLR,CLR,0.00,WeatherDisplay:10.37,2013-05-21 18:30:00,
2013-05-21 15:00:00,84.9,72.7,29.52,WNW,291,0.0,0.0,67,0.00,CLR,CLR,0.00,WeatherDisplay:10.37,2013-05-21 19:00:00,
2013-05-21 15:30:00,84.6,70.1,29.51,West,265,0.0,0.0,62,0.00,CLR,CLR,0.00,WeatherDisplay:10.37,2013-05-21 19:30:00,
2013-05-21 16:00:00,84.2,70.7,29.50,WSW,246,0.0,0.0,64,0.00,CLR,CLR,0.00,WeatherDisplay:10.37,2013-05-21 20:00:00,
2013-05-21 16:30:00,84.4,70.9,29.50,West,281,0.0,10.0,64,0.00,CLR,CLR,0.00,WeatherDisplay:10.37,2013-05-21 20:30:00,
2013-05-21 17:00:00,85.1,71.1,29.51,West,269,0.0,3.0,63,0.00,CLR,CLR,0.00,WeatherDisplay:10.37,2013-05-21 21:00:00,
2013-05-21 17:30:00,81.1,68.3,29.53,NE,53,1.0,10.0,65,0.00,CLR,CLR,0.00,WeatherDisplay:10.37,2013-05-21 21:30:00,
2013-05-21 18:00:00,80.8,69.2,29.53,NE,55,2.0,9.0,68,0.00,CLR,CLR,0.00,WeatherDisplay:10.37,2013-05-21 22:00:00,
2013-05-21 18:30:00,79.5,68.9,29.53,East,99,0.0,5.0,70,0.00,CLR,CLR,0.00,WeatherDisplay:10.37,2013-05-21 22:30:00,
2013-05-21 19:00:00,78.4,69.9,29.53,ENE,78,0.0,5.0,75,0.00,CLR,CLR,0.00,WeatherDisplay:10.37,2013-05-21 23:00:00,
2013-05-21 19:30:00,77.7,71.1,29.53,ESE,112,0.0,2.0,80,0.00,CLR,CLR,0.00,WeatherDisplay:10.37,2013-05-21 23:30:00,
2013-05-21 20:00:00,76.6,70.4,29.53,SE,142,0.0,3.0,81,0.00,CLR,CLR,0.00,WeatherDisplay:10.37,2013-05-22 00:00:00,
2013-05-21 20:30:00,74.8,69.0,29.53,SE,140,0.0,2.0,82,0.00,CLR,CLR,0.00,WeatherDisplay:10.37,2013-05-22 00:30:00,
2013-05-21 21:00:00,73.9,68.8,29.53,ESE,112,0.0,1.0,84,0.00,CLR,CLR,0.00,WeatherDisplay:10.37,2013-05-22 01:00:00,
2013-05-21 21:30:00,73.0,68.6,29.53,ESE,108,0.0,0.0,86,0.00,CLR,CLR,0.00,WeatherDisplay:10.37,2013-05-22 01:30:00,
2013-05-21 22:00:00,72.7,68.2,29.53,ESE,112,0.0,0.0,86,0.00,CLR,CLR,0.00,WeatherDisplay:10.37,2013-05-22 02:00:00,
2013-05-21 22:30:00,72.3,68.2,29.54,ESE,119,0.0,0.0,87,0.00,CLR,CLR,0.00,WeatherDisplay:10.37,2013-05-22 02:30:00,
2013-05-21 23:00:00,71.8,68.0,29.53,ESE,123,0.0,0.0,88,0.00,CLR,CLR,0.00,WeatherDisplay:10.37,2013-05-22 03:00:00,
2013-05-21 23:30:00,71.4,68.0,29.53,ESE,114,0.0,0.0,89,0.00,CLR,CLR,0.00,WeatherDisplay:10.37,2013-05-22 03:30:00,